No data was retrieved for https://query.yahooapis.com/v1/public/yql?q=select+%2A+from+weather.forecast+where+woeid%3D626045&format=xml&u=c


Notice: Undefined index: in /var/www/html/weather28/wsIconUrl.php on line 132

Warning: A non-numeric value encountered in /var/www/html/weather28/wsIconUrl.php on line 140

Warning: A non-numeric value encountered in /var/www/html/weather28/wsIconUrl.php on line 141

Warning: A non-numeric value encountered in /var/www/html/weather28/wsFunctions.php on line 312
- Bienvenue sur la Station Météo " Les Brantus " située au Point du Jour, Saint-Nazaire, 44600 -
Pas de vigilance météorologique particulière.    Il n'y a aucun avertissement

Météo Saint-Nazaire.



Visitez nos sites météorologiques autres:

Template documentation
and downloads

And another site



Rapports METAR proximité


Warning: A non-numeric value encountered in /var/www/html/weather28/metar/metarDisplay.php on line 166

Warning: A non-numeric value encountered in /var/www/html/weather28/metar/metarDisplay.php on line 166

Warning: A non-numeric value encountered in /var/www/html/weather28/metar/metarDisplay.php on line 166

Warning: A non-numeric value encountered in /var/www/html/weather28/metar/metarDisplay.php on line 166

Warning: A non-numeric value encountered in /var/www/html/weather28/metar/metarDisplay.php on line 166

Warning: A non-numeric value encountered in /var/www/html/weather28/metar/metarDisplay.php on line 166
   
LFRZ - Saint-Nazaire, France
Mise à jour: 18-09-2019 13:30
Claires  
Claires  
   Vent: NE 33.3 km/h
Vent: NE 33.3 km/h
Température: 20°C
Point de rosée: 7°C
Humidité: 43%
Baromètre: 1022 hPa
visibilité: More than 10 km
Détails des nuages: Claires
LFRZ 181130Z AUTO 05018KT CAVOK 20/07 Q1022 BECMG 05016G26KT
LFPG - Paris, France
Mise à jour: 18-09-2019 13:30
Claires  
Claires  
   Vent: NNE 25.9 km/h
Vent: NNE 25.9 km/h
Température: 17°C
Point de rosée: 4°C
Humidité: 42%
Baromètre: 1026 hPa
visibilité: More than 10 km
Détails des nuages: Claires
LFPG 181130Z 03014KT 360V060 CAVOK 17/04 Q1026 NOSIG
LFQQ - Lille, France
Mise à jour: 18-09-2019 13:30
Nuageux  
Nuageux  
   Vent: NE 18.5 km/h
Vent: NE 18.5 km/h
Température: 18°C
Point de rosée: 5°C
Humidité: 43%
Baromètre: 1028 hPa
Nuageux: Nuageux
visibilité: More than 10 km
Détails des nuages: Nuageux 4900 ft
LFQQ 181130Z AUTO 05010KT 360V070 9999 BKN049 18/05 Q1028 NOSIG
BIRK - Reykjavik, Islande
Mise à jour: 18-09-2019 13:00
Pluie, Nuageux  
Pluie, Nuageux  
   Vent: Est 35.2 km/h<br />Gust to 35.2 km/h
Vent: Est 35.2 km/h
Gust to 35.2 km/h
Température: 7°C
éolien: 2°C
Point de rosée: 3°C
Humidité: 76%
Baromètre: 1014 hPa
Nuageux: Nuageux
visibilité: 5 km
Détails des nuages: Nuageux 2200 ft,
Nuageux 4700 ft
BIRK 181100Z 09019G29KT 5000 RA BKN022 OVC047 07/03 Q1014
ENGM - Oslo, Norvège
Mise à jour: 18-09-2019 13:50
Claires  
Claires  
   Vent: North 18.5 km/h
Vent: North 18.5 km/h
Température: 14°C
Point de rosée: 0°C
Humidité: 39%
Baromètre: 1016 hPa
visibilité: More than 10 km
Détails des nuages: Claires
ENGM 181150Z 01010KT 340V060 CAVOK 14/00 Q1016 NOSIG
EGLL - Londres, Royaume-Uni
Mise à jour: 18-09-2019 13:20
Claires  
Claires  
   Vent: NNE 9.3 km/h
Vent: NNE 9.3 km/h
Température: 18°C
Point de rosée: 4°C
Humidité: 40%
Baromètre: 1030 hPa
Nuageux: Claires
visibilité: More than 10 km
Détails des nuages: Claires
EGLL 181120Z AUTO 03005KT 350V070 9999 NCD 18/04 Q1030 NOSIG
EDDT - Berlin, Allemagne *
Mise à jour: 18-09-2019 13:50
Claires  
Claires  
   Vent: NO 20.4 km/h<br />Gust to 20.4 km/h
Vent: NO 20.4 km/h
Gust to 20.4 km/h
Température: 15°C
Point de rosée: 4°C
Humidité: 48%
Baromètre: 1021 hPa
visibilité: More than 10 km
Détails des nuages: Claires
EDDT 181150Z 31011G21KT 270V010 CAVOK 15/04 Q1021 TEMPO 31015G25KT
UUEE - Moscou, Russie
Mise à jour: 18-09-2019 13:30
Peu de nuages  
Peu de nuages  
   Vent: varie 3.5 km/h
Vent: varie 3.5 km/h
Température: 14°C
Point de rosée: 6°C
Humidité: 59%
Baromètre: 997 hPa
Nuageux: Peu de nuages
visibilité: More than 10 km
Détails des nuages: Peu de nuages 3200 ft
UUEE 181130Z VRB01MPS 9999 FEW032CB 14/06 Q0997 R24L/CLRD62 R24C/CLRD62 R24R/////// NOSIG
LEMD - Madrid, Espagne
Mise à jour: 18-09-2019 13:30
Claires  
Claires  
   Vent: SSE 3.7 km/h
Vent: SSE 3.7 km/h
Température: 24°C
Point de rosée: 13°C
Humidité: 50%
Baromètre: 1018 hPa
visibilité: More than 10 km
Détails des nuages: Claires
LEMD 181130Z 16002KT CAVOK 24/13 Q1018 NOSIG
LIRF - Rome, Italie
Mise à jour: 18-09-2019 13:20
Peu de nuages  
Peu de nuages  
   Vent: SO 16.7 km/h
Vent: SO 16.7 km/h
Température: 28°C
Index de chaleur: 29°C
Point de rosée: 19°C
Humidité: 58%
Baromètre: 1015 hPa
Nuageux: Peu de nuages
visibilité: More than 10 km
Détails des nuages: Peu de nuages 3500 ft
LIRF 181120Z 22009KT 200V260 9999 FEW035 28/19 Q1015 NOSIG
  

Script développé par  Saratoga-weather.org Adapté pour le modèle par  Weerstation Leuven

Vous trouverez notre info météo Également à:

WeatherCloud

Weather Underground

AWEKAS

Équipement que nous utilisons:

Programme Météo
Meteohub

Meteohub